sensor_id;sensor_type;location;lat;lon;timestamp;P1;durP1;ratioP1;P2;durP2;ratioP2
9117;SDS011;4594;50.994;7.126;2022-09-20T00:00:48;2.30;;;2.10;;
9117;SDS011;4594;50.994;7.126;2022-09-20T00:03:14;6.50;;;2.17;;
9117;SDS011;4594;50.994;7.126;2022-09-20T00:05:42;3.27;;;2.33;;
9117;SDS011;4594;50.994;7.126;2022-09-20T00:08:11;3.60;;;2.00;;
9117;SDS011;4594;50.994;7.126;2022-09-20T00:10:40;2.07;;;2.03;;
9117;SDS011;4594;50.994;7.126;2022-09-20T00:13:07;4.03;;;2.30;;
9117;SDS011;4594;50.994;7.126;2022-09-20T00:15:43;2.53;;;2.20;;
9117;SDS011;4594;50.994;7.126;2022-09-20T00:18:10;2.53;;;2.30;;
9117;SDS011;4594;50.994;7.126;2022-09-20T00:20:43;6.37;;;2.20;;
9117;SDS011;4594;50.994;7.126;2022-09-20T00:23:14;5.20;;;2.00;;
9117;SDS011;4594;50.994;7.126;2022-09-20T00:25:41;2.20;;;2.00;;
9117;SDS011;4594;50.994;7.126;2022-09-20T00:28:07;2.20;;;2.03;;
9117;SDS011;4594;50.994;7.126;2022-09-20T00:30:34;2.90;;;2.17;;
9117;SDS011;4594;50.994;7.126;2022-09-20T00:33:01;2.20;;;2.10;;
9117;SDS011;4594;50.994;7.126;2022-09-20T00:35:28;4.47;;;2.03;;
9117;SDS011;4594;50.994;7.126;2022-09-20T00:37:54;2.70;;;2.03;;
9117;SDS011;4594;50.994;7.126;2022-09-20T00:40:21;6.83;;;2.60;;
9117;SDS011;4594;50.994;7.126;2022-09-20T00:42:50;3.40;;;2.20;;
9117;SDS011;4594;50.994;7.126;2022-09-20T00:45:26;2.87;;;2.17;;
9117;SDS011;4594;50.994;7.126;2022-09-20T00:50:50;3.17;;;2.13;;
9117;SDS011;4594;50.994;7.126;2022-09-20T00:53:31;14.47;;;2.33;;
9117;SDS011;4594;50.994;7.126;2022-09-20T00:56:04;2.27;;;2.10;;
9117;SDS011;4594;50.994;7.126;2022-09-20T00:58:50;2.50;;;2.13;;
9117;SDS011;4594;50.994;7.126;2022-09-20T01:01:36;4.97;;;2.50;;
9117;SDS011;4594;50.994;7.126;2022-09-20T01:04:02;2.70;;;2.00;;
9117;SDS011;4594;50.994;7.126;2022-09-20T01:06:28;2.67;;;2.23;;
9117;SDS011;4594;50.994;7.126;2022-09-20T01:08:57;2.67;;;1.87;;
9117;SDS011;4594;50.994;7.126;2022-09-20T01:11:27;2.30;;;1.90;;
9117;SDS011;4594;50.994;7.126;2022-09-20T01:13:55;6.90;;;2.40;;
9117;SDS011;4594;50.994;7.126;2022-09-20T01:16:21;2.00;;;1.90;;
9117;SDS011;4594;50.994;7.126;2022-09-20T01:18:50;2.33;;;2.13;;
9117;SDS011;4594;50.994;7.126;2022-09-20T01:21:16;2.20;;;1.83;;
9117;SDS011;4594;50.994;7.126;2022-09-20T01:23:47;4.50;;;2.03;;
9117;SDS011;4594;50.994;7.126;2022-09-20T01:30:12;2.03;;;1.83;;
9117;SDS011;4594;50.994;7.126;2022-09-20T01:35:46;2.63;;;2.10;;
9117;SDS011;4594;50.994;7.126;2022-09-20T01:41:17;4.40;;;2.10;;
9117;SDS011;4594;50.994;7.126;2022-09-20T01:43:57;3.13;;;2.33;;
9117;SDS011;4594;50.994;7.126;2022-09-20T01:46:55;4.20;;;2.50;;
9117;SDS011;4594;50.994;7.126;2022-09-20T01:59:24;2.30;;;2.13;;
9117;SDS011;4594;50.994;7.126;2022-09-20T02:07:58;2.77;;;2.30;;
9117;SDS011;4594;50.994;7.126;2022-09-20T02:11:28;2.20;;;2.00;;
9117;SDS011;4594;50.994;7.126;2022-09-20T02:20:06;2.03;;;1.93;;
9117;SDS011;4594;50.994;7.126;2022-09-20T02:26:02;2.47;;;1.80;;
9117;SDS011;4594;50.994;7.126;2022-09-20T02:32:10;2.20;;;2.10;;
9117;SDS011;4594;50.994;7.126;2022-09-20T02:49:03;2.57;;;1.90;;
9117;SDS011;4594;50.994;7.126;2022-09-20T02:51:55;2.13;;;1.90;;
9117;SDS011;4594;50.994;7.126;2022-09-20T02:57:25;2.97;;;2.20;;
9117;SDS011;4594;50.994;7.126;2022-09-20T03:00:19;3.63;;;2.40;;
9117;SDS011;4594;50.994;7.126;2022-09-20T03:03:17;2.60;;;2.40;;
9117;SDS011;4594;50.994;7.126;2022-09-20T03:05:56;2.57;;;2.27;;
9117;SDS011;4594;50.994;7.126;2022-09-20T03:08:42;2.43;;;2.23;;
9117;SDS011;4594;50.994;7.126;2022-09-20T03:11:28;4.77;;;2.10;;
9117;SDS011;4594;50.994;7.126;2022-09-20T03:14:31;3.40;;;2.50;;
9117;SDS011;4594;50.994;7.126;2022-09-20T03:17:31;3.03;;;2.37;;
9117;SDS011;4594;50.994;7.126;2022-09-20T03:24:02;2.50;;;1.90;;
9117;SDS011;4594;50.994;7.126;2022-09-20T03:26:45;5.17;;;2.70;;
9117;SDS011;4594;50.994;7.126;2022-09-20T03:29:50;2.43;;;2.33;;
9117;SDS011;4594;50.994;7.126;2022-09-20T03:35:42;2.93;;;2.43;;
9117;SDS011;4594;50.994;7.126;2022-09-20T03:44:15;2.80;;;2.10;;
9117;SDS011;4594;50.994;7.126;2022-09-20T03:47:09;3.50;;;2.20;;
9117;SDS011;4594;50.994;7.126;2022-09-20T03:53:08;2.20;;;2.10;;
9117;SDS011;4594;50.994;7.126;2022-09-20T04:04:01;3.70;;;2.23;;
9117;SDS011;4594;50.994;7.126;2022-09-20T04:07:00;2.53;;;2.37;;
9117;SDS011;4594;50.994;7.126;2022-09-20T04:16:04;2.80;;;2.67;;
9117;SDS011;4594;50.994;7.126;2022-09-20T04:18:57;2.30;;;2.20;;
9117;SDS011;4594;50.994;7.126;2022-09-20T04:24:23;3.13;;;2.87;;
9117;SDS011;4594;50.994;7.126;2022-09-20T04:26:55;4.07;;;2.30;;
9117;SDS011;4594;50.994;7.126;2022-09-20T04:32:24;3.03;;;2.70;;
9117;SDS011;4594;50.994;7.126;2022-09-20T04:38:29;2.33;;;2.23;;
9117;SDS011;4594;50.994;7.126;2022-09-20T04:40:58;3.20;;;2.73;;
9117;SDS011;4594;50.994;7.126;2022-09-20T04:55:54;4.33;;;2.97;;
9117;SDS011;4594;50.994;7.126;2022-09-20T05:10:02;2.73;;;2.53;;
9117;SDS011;4594;50.994;7.126;2022-09-20T05:29:54;4.93;;;2.90;;
9117;SDS011;4594;50.994;7.126;2022-09-20T05:32:40;6.13;;;3.30;;
9117;SDS011;4594;50.994;7.126;2022-09-20T05:38:47;3.23;;;3.00;;
9117;SDS011;4594;50.994;7.126;2022-09-20T05:50:45;4.40;;;2.43;;
9117;SDS011;4594;50.994;7.126;2022-09-20T06:17:27;2.90;;;2.70;;
9117;SDS011;4594;50.994;7.126;2022-09-20T06:20:12;3.47;;;3.23;;
9117;SDS011;4594;50.994;7.126;2022-09-20T06:22:50;3.63;;;2.90;;
9117;SDS011;4594;50.994;7.126;2022-09-20T06:27:57;3.13;;;2.80;;
9117;SDS011;4594;50.994;7.126;2022-09-20T06:30:33;4.03;;;2.47;;
9117;SDS011;4594;50.994;7.126;2022-09-20T06:42:33;5.67;;;3.67;;
9117;SDS011;4594;50.994;7.126;2022-09-20T06:45:00;7.00;;;4.10;;
9117;SDS011;4594;50.994;7.126;2022-09-20T06:47:25;3.90;;;3.50;;
9117;SDS011;4594;50.994;7.126;2022-09-20T06:49:51;4.93;;;3.53;;
9117;SDS011;4594;50.994;7.126;2022-09-20T06:52:18;3.37;;;3.17;;
9117;SDS011;4594;50.994;7.126;2022-09-20T06:54:47;5.93;;;3.70;;
9117;SDS011;4594;50.994;7.126;2022-09-20T07:00:15;6.30;;;3.70;;
9117;SDS011;4594;50.994;7.126;2022-09-20T07:02:41;5.83;;;3.10;;
9117;SDS011;4594;50.994;7.126;2022-09-20T07:05:14;4.57;;;3.13;;
9117;SDS011;4594;50.994;7.126;2022-09-20T07:07:42;4.23;;;3.23;;
9117;SDS011;4594;50.994;7.126;2022-09-20T07:10:09;4.77;;;3.57;;
9117;SDS011;4594;50.994;7.126;2022-09-20T07:12:36;7.53;;;3.57;;
9117;SDS011;4594;50.994;7.126;2022-09-20T07:15:02;10.57;;;4.43;;
9117;SDS011;4594;50.994;7.126;2022-09-20T07:17:28;5.17;;;3.20;;
9117;SDS011;4594;50.994;7.126;2022-09-20T07:19:53;4.73;;;3.50;;
9117;SDS011;4594;50.994;7.126;2022-09-20T07:22:21;4.80;;;3.87;;
9117;SDS011;4594;50.994;7.126;2022-09-20T07:24:46;7.50;;;4.00;;
9117;SDS011;4594;50.994;7.126;2022-09-20T07:27:12;5.80;;;3.60;;
9117;SDS011;4594;50.994;7.126;2022-09-20T07:29:38;3.07;;;2.77;;
9117;SDS011;4594;50.994;7.126;2022-09-20T07:32:05;7.80;;;3.60;;
9117;SDS011;4594;50.994;7.126;2022-09-20T07:34:31;5.80;;;3.30;;
9117;SDS011;4594;50.994;7.126;2022-09-20T07:36:56;4.90;;;3.23;;
9117;SDS011;4594;50.994;7.126;2022-09-20T07:39:24;7.77;;;3.70;;
9117;SDS011;4594;50.994;7.126;2022-09-20T07:41:50;5.03;;;3.20;;
9117;SDS011;4594;50.994;7.126;2022-09-20T07:44:16;3.43;;;3.13;;
9117;SDS011;4594;50.994;7.126;2022-09-20T07:46:49;4.77;;;3.40;;
9117;SDS011;4594;50.994;7.126;2022-09-20T07:49:17;6.03;;;3.57;;
9117;SDS011;4594;50.994;7.126;2022-09-20T07:51:44;3.83;;;3.43;;
9117;SDS011;4594;50.994;7.126;2022-09-20T07:54:10;7.83;;;2.73;;
9117;SDS011;4594;50.994;7.126;2022-09-20T07:56:35;10.10;;;3.53;;
9117;SDS011;4594;50.994;7.126;2022-09-20T07:59:01;6.43;;;3.20;;
9117;SDS011;4594;50.994;7.126;2022-09-20T08:01:28;8.63;;;2.77;;
9117;SDS011;4594;50.994;7.126;2022-09-20T08:03:54;6.53;;;2.90;;
9117;SDS011;4594;50.994;7.126;2022-09-20T08:06:20;8.20;;;2.67;;
9117;SDS011;4594;50.994;7.126;2022-09-20T08:08:46;4.57;;;2.77;;
9117;SDS011;4594;50.994;7.126;2022-09-20T08:11:13;5.20;;;2.83;;
9117;SDS011;4594;50.994;7.126;2022-09-20T08:13:54;6.90;;;2.80;;
9117;SDS011;4594;50.994;7.126;2022-09-20T08:16:22;4.93;;;3.10;;
9117;SDS011;4594;50.994;7.126;2022-09-20T08:18:52;9.27;;;2.40;;
9117;SDS011;4594;50.994;7.126;2022-09-20T08:21:24;6.97;;;2.53;;
9117;SDS011;4594;50.994;7.126;2022-09-20T08:23:58;5.10;;;2.33;;
9117;SDS011;4594;50.994;7.126;2022-09-20T08:26:25;7.73;;;2.60;;
9117;SDS011;4594;50.994;7.126;2022-09-20T08:28:56;3.27;;;1.93;;
9117;SDS011;4594;50.994;7.126;2022-09-20T08:31:24;6.47;;;2.00;;
9117;SDS011;4594;50.994;7.126;2022-09-20T08:33:54;4.63;;;1.77;;
9117;SDS011;4594;50.994;7.126;2022-09-20T08:36:21;10.73;;;2.10;;
9117;SDS011;4594;50.994;7.126;2022-09-20T08:38:50;1.73;;;1.63;;
9117;SDS011;4594;50.994;7.126;2022-09-20T08:41:21;3.40;;;1.60;;
9117;SDS011;4594;50.994;7.126;2022-09-20T08:43:59;4.07;;;1.80;;
9117;SDS011;4594;50.994;7.126;2022-09-20T08:46:50;2.60;;;1.50;;
9117;SDS011;4594;50.994;7.126;2022-09-20T08:49:41;4.10;;;1.27;;
9117;SDS011;4594;50.994;7.126;2022-09-20T08:52:09;6.03;;;1.87;;
9117;SDS011;4594;50.994;7.126;2022-09-20T08:54:43;2.90;;;1.40;;
9117;SDS011;4594;50.994;7.126;2022-09-20T08:57:12;3.80;;;1.27;;
9117;SDS011;4594;50.994;7.126;2022-09-20T08:59:41;2.10;;;1.40;;
9117;SDS011;4594;50.994;7.126;2022-09-20T09:02:12;2.83;;;1.27;;
9117;SDS011;4594;50.994;7.126;2022-09-20T09:04:42;2.90;;;1.43;;
9117;SDS011;4594;50.994;7.126;2022-09-20T09:07:09;3.03;;;1.50;;
9117;SDS011;4594;50.994;7.126;2022-09-20T09:09:40;4.77;;;1.20;;
9117;SDS011;4594;50.994;7.126;2022-09-20T09:12:15;2.13;;;1.57;;
9117;SDS011;4594;50.994;7.126;2022-09-20T09:14:58;1.87;;;1.00;;
9117;SDS011;4594;50.994;7.126;2022-09-20T09:17:46;10.37;;;1.63;;
9117;SDS011;4594;50.994;7.126;2022-09-20T09:20:16;6.13;;;1.57;;
9117;SDS011;4594;50.994;7.126;2022-09-20T09:22:46;3.57;;;1.30;;
9117;SDS011;4594;50.994;7.126;2022-09-20T09:25:26;5.10;;;1.40;;
9117;SDS011;4594;50.994;7.126;2022-09-20T09:35:59;3.37;;;1.10;;
9117;SDS011;4594;50.994;7.126;2022-09-20T09:38:39;5.13;;;1.37;;
9117;SDS011;4594;50.994;7.126;2022-09-20T09:41:20;4.43;;;1.40;;
9117;SDS011;4594;50.994;7.126;2022-09-20T09:44:01;1.17;;;1.17;;
9117;SDS011;4594;50.994;7.126;2022-09-20T09:46:33;4.90;;;1.47;;
9117;SDS011;4594;50.994;7.126;2022-09-20T09:49:03;3.80;;;1.33;;
9117;SDS011;4594;50.994;7.126;2022-09-20T09:51:39;5.20;;;1.47;;
9117;SDS011;4594;50.994;7.126;2022-09-20T09:54:15;3.63;;;1.60;;
9117;SDS011;4594;50.994;7.126;2022-09-20T10:05:10;3.67;;;1.47;;
9117;SDS011;4594;50.994;7.126;2022-09-20T10:10:39;3.20;;;1.70;;
9117;SDS011;4594;50.994;7.126;2022-09-20T10:13:48;11.23;;;1.83;;
9117;SDS011;4594;50.994;7.126;2022-09-20T10:19:42;1.93;;;1.40;;
9117;SDS011;4594;50.994;7.126;2022-09-20T10:22:41;2.60;;;1.37;;
9117;SDS011;4594;50.994;7.126;2022-09-20T10:37:38;2.20;;;1.57;;
9117;SDS011;4594;50.994;7.126;2022-09-20T10:40:20;3.40;;;1.57;;
9117;SDS011;4594;50.994;7.126;2022-09-20T10:46:33;4.87;;;1.40;;
9117;SDS011;4594;50.994;7.126;2022-09-20T10:49:20;3.30;;;1.73;;
9117;SDS011;4594;50.994;7.126;2022-09-20T10:58:47;1.90;;;1.70;;
9117;SDS011;4594;50.994;7.126;2022-09-20T11:07:28;3.93;;;1.80;;
9117;SDS011;4594;50.994;7.126;2022-09-20T11:13:32;4.23;;;1.63;;
9117;SDS011;4594;50.994;7.126;2022-09-20T11:16:04;3.07;;;1.70;;
9117;SDS011;4594;50.994;7.126;2022-09-20T11:24:52;2.17;;;1.50;;
9117;SDS011;4594;50.994;7.126;2022-09-20T11:27:32;6.63;;;1.60;;
9117;SDS011;4594;50.994;7.126;2022-09-20T11:32:40;3.63;;;1.60;;
9117;SDS011;4594;50.994;7.126;2022-09-20T11:37:39;4.67;;;1.60;;
9117;SDS011;4594;50.994;7.126;2022-09-20T11:42:51;5.10;;;1.80;;
9117;SDS011;4594;50.994;7.126;2022-09-20T11:45:22;3.83;;;1.70;;
9117;SDS011;4594;50.994;7.126;2022-09-20T11:47:50;5.57;;;1.90;;
9117;SDS011;4594;50.994;7.126;2022-09-20T11:56:27;2.27;;;1.60;;
9117;SDS011;4594;50.994;7.126;2022-09-20T11:59:00;2.60;;;1.70;;
9117;SDS011;4594;50.994;7.126;2022-09-20T12:01:35;1.37;;;1.33;;
9117;SDS011;4594;50.994;7.126;2022-09-20T12:06:42;4.63;;;1.50;;
9117;SDS011;4594;50.994;7.126;2022-09-20T12:09:27;5.80;;;1.43;;
9117;SDS011;4594;50.994;7.126;2022-09-20T12:11:58;2.40;;;1.50;;
9117;SDS011;4594;50.994;7.126;2022-09-20T12:14:39;2.97;;;1.63;;
9117;SDS011;4594;50.994;7.126;2022-09-20T12:17:40;1.73;;;1.30;;
9117;SDS011;4594;50.994;7.126;2022-09-20T12:24:00;2.20;;;1.60;;
9117;SDS011;4594;50.994;7.126;2022-09-20T12:26:06;2.47;;;1.40;;
9117;SDS011;4594;50.994;7.126;2022-09-20T12:28:45;3.13;;;1.50;;
9117;SDS011;4594;50.994;7.126;2022-09-20T12:33:57;8.13;;;1.77;;
9117;SDS011;4594;50.994;7.126;2022-09-20T12:36:36;1.13;;;1.10;;
9117;SDS011;4594;50.994;7.126;2022-09-20T12:39:16;2.77;;;1.77;;
9117;SDS011;4594;50.994;7.126;2022-09-20T12:41:57;4.97;;;2.03;;
9117;SDS011;4594;50.994;7.126;2022-09-20T12:44:35;4.17;;;1.57;;
9117;SDS011;4594;50.994;7.126;2022-09-20T12:47:28;2.73;;;1.40;;
9117;SDS011;4594;50.994;7.126;2022-09-20T12:50:00;4.53;;;1.57;;
9117;SDS011;4594;50.994;7.126;2022-09-20T12:52:55;1.60;;;1.43;;
9117;SDS011;4594;50.994;7.126;2022-09-20T13:00:46;3.47;;;1.37;;
9117;SDS011;4594;50.994;7.126;2022-09-20T13:03:34;2.23;;;1.10;;
9117;SDS011;4594;50.994;7.126;2022-09-20T13:08:42;2.70;;;1.20;;
9117;SDS011;4594;50.994;7.126;2022-09-20T13:11:36;2.97;;;1.20;;
9117;SDS011;4594;50.994;7.126;2022-09-20T13:14:41;3.20;;;1.40;;
9117;SDS011;4594;50.994;7.126;2022-09-20T13:19:55;1.73;;;1.20;;
9117;SDS011;4594;50.994;7.126;2022-09-20T13:25:02;1.43;;;1.00;;
9117;SDS011;4594;50.994;7.126;2022-09-20T13:27:32;1.37;;;0.90;;
9117;SDS011;4594;50.994;7.126;2022-09-20T13:30:25;2.57;;;1.17;;
9117;SDS011;4594;50.994;7.126;2022-09-20T13:32:55;2.87;;;1.50;;
9117;SDS011;4594;50.994;7.126;2022-09-20T13:35:23;2.77;;;1.63;;
9117;SDS011;4594;50.994;7.126;2022-09-20T13:37:56;2.97;;;1.20;;
9117;SDS011;4594;50.994;7.126;2022-09-20T13:40:38;1.00;;;1.00;;
9117;SDS011;4594;50.994;7.126;2022-09-20T13:46:08;10.03;;;1.30;;
9117;SDS011;4594;50.994;7.126;2022-09-20T13:48:40;1.30;;;1.20;;
9117;SDS011;4594;50.994;7.126;2022-09-20T13:51:22;2.83;;;1.30;;
9117;SDS011;4594;50.994;7.126;2022-09-20T13:53:50;1.93;;;1.30;;
9117;SDS011;4594;50.994;7.126;2022-09-20T13:56:22;1.33;;;1.23;;
9117;SDS011;4594;50.994;7.126;2022-09-20T13:58:53;1.13;;;1.03;;
9117;SDS011;4594;50.994;7.126;2022-09-20T14:01:29;2.53;;;1.00;;
9117;SDS011;4594;50.994;7.126;2022-09-20T14:04:12;1.30;;;1.20;;
9117;SDS011;4594;50.994;7.126;2022-09-20T14:06:41;1.50;;;1.20;;
9117;SDS011;4594;50.994;7.126;2022-09-20T14:09:15;1.50;;;1.37;;
9117;SDS011;4594;50.994;7.126;2022-09-20T14:11:54;1.40;;;1.30;;
9117;SDS011;4594;50.994;7.126;2022-09-20T14:14:22;1.87;;;1.50;;
9117;SDS011;4594;50.994;7.126;2022-09-20T14:16:49;1.70;;;1.60;;
9117;SDS011;4594;50.994;7.126;2022-09-20T14:19:19;2.97;;;1.33;;
9117;SDS011;4594;50.994;7.126;2022-09-20T14:21:51;3.50;;;1.30;;
9117;SDS011;4594;50.994;7.126;2022-09-20T14:24:24;2.57;;;1.13;;
9117;SDS011;4594;50.994;7.126;2022-09-20T14:29:45;3.57;;;1.50;;
9117;SDS011;4594;50.994;7.126;2022-09-20T14:35:00;1.73;;;1.40;;
9117;SDS011;4594;50.994;7.126;2022-09-20T14:37:44;2.77;;;1.40;;
9117;SDS011;4594;50.994;7.126;2022-09-20T14:42:59;4.57;;;1.60;;
9117;SDS011;4594;50.994;7.126;2022-09-20T14:50:42;3.00;;;1.20;;
9117;SDS011;4594;50.994;7.126;2022-09-20T14:55:55;1.60;;;1.50;;
9117;SDS011;4594;50.994;7.126;2022-09-20T15:01:35;4.70;;;1.60;;
9117;SDS011;4594;50.994;7.126;2022-09-20T15:04:09;1.27;;;1.20;;
9117;SDS011;4594;50.994;7.126;2022-09-20T15:06:46;1.63;;;1.40;;
9117;SDS011;4594;50.994;7.126;2022-09-20T15:09:14;2.70;;;1.30;;
9117;SDS011;4594;50.994;7.126;2022-09-20T15:11:40;1.40;;;1.30;;
9117;SDS011;4594;50.994;7.126;2022-09-20T15:14:06;1.43;;;1.30;;
9117;SDS011;4594;50.994;7.126;2022-09-20T15:16:32;1.60;;;1.40;;
9117;SDS011;4594;50.994;7.126;2022-09-20T15:18:58;1.30;;;1.20;;
9117;SDS011;4594;50.994;7.126;2022-09-20T15:21:24;2.03;;;1.37;;
9117;SDS011;4594;50.994;7.126;2022-09-20T15:23:49;1.30;;;1.20;;
9117;SDS011;4594;50.994;7.126;2022-09-20T15:26:16;5.33;;;1.20;;
9117;SDS011;4594;50.994;7.126;2022-09-20T15:28:44;1.23;;;1.20;;
9117;SDS011;4594;50.994;7.126;2022-09-20T15:31:11;1.23;;;1.13;;
9117;SDS011;4594;50.994;7.126;2022-09-20T15:33:39;1.50;;;1.40;;
9117;SDS011;4594;50.994;7.126;2022-09-20T15:36:05;1.33;;;1.20;;
9117;SDS011;4594;50.994;7.126;2022-09-20T15:38:31;4.00;;;1.57;;
9117;SDS011;4594;50.994;7.126;2022-09-20T15:40:59;4.30;;;1.67;;
9117;SDS011;4594;50.994;7.126;2022-09-20T15:43:31;1.43;;;1.23;;
9117;SDS011;4594;50.994;7.126;2022-09-20T15:46:04;2.67;;;1.27;;
9117;SDS011;4594;50.994;7.126;2022-09-20T15:48:46;4.03;;;1.60;;
9117;SDS011;4594;50.994;7.126;2022-09-20T15:51:12;1.27;;;1.27;;
9117;SDS011;4594;50.994;7.126;2022-09-20T15:53:40;1.20;;;1.10;;
9117;SDS011;4594;50.994;7.126;2022-09-20T15:58:47;4.80;;;1.63;;
9117;SDS011;4594;50.994;7.126;2022-09-20T16:01:25;1.20;;;1.20;;
9117;SDS011;4594;50.994;7.126;2022-09-20T16:03:55;1.40;;;1.30;;
9117;SDS011;4594;50.994;7.126;2022-09-20T16:06:21;3.70;;;1.47;;
9117;SDS011;4594;50.994;7.126;2022-09-20T16:08:48;1.57;;;1.47;;
9117;SDS011;4594;50.994;7.126;2022-09-20T16:11:16;1.50;;;1.40;;
9117;SDS011;4594;50.994;7.126;2022-09-20T16:13:45;3.90;;;1.50;;
9117;SDS011;4594;50.994;7.126;2022-09-20T16:16:16;1.30;;;1.30;;
9117;SDS011;4594;50.994;7.126;2022-09-20T16:18:43;1.40;;;1.30;;
9117;SDS011;4594;50.994;7.126;2022-09-20T16:21:28;1.77;;;1.63;;
9117;SDS011;4594;50.994;7.126;2022-09-20T16:23:55;1.60;;;1.50;;
9117;SDS011;4594;50.994;7.126;2022-09-20T16:26:22;1.60;;;1.50;;
9117;SDS011;4594;50.994;7.126;2022-09-20T16:28:51;1.20;;;1.20;;
9117;SDS011;4594;50.994;7.126;2022-09-20T16:31:29;1.53;;;1.43;;
9117;SDS011;4594;50.994;7.126;2022-09-20T16:34:11;1.53;;;1.47;;
9117;SDS011;4594;50.994;7.126;2022-09-20T16:36:41;2.73;;;1.73;;
9117;SDS011;4594;50.994;7.126;2022-09-20T16:39:07;1.73;;;1.63;;
9117;SDS011;4594;50.994;7.126;2022-09-20T16:41:34;4.73;;;1.70;;
9117;SDS011;4594;50.994;7.126;2022-09-20T16:44:00;2.23;;;1.63;;
9117;SDS011;4594;50.994;7.126;2022-09-20T16:46:26;3.67;;;1.60;;
9117;SDS011;4594;50.994;7.126;2022-09-20T16:48:54;2.77;;;1.60;;
9117;SDS011;4594;50.994;7.126;2022-09-20T16:51:23;1.80;;;1.47;;
9117;SDS011;4594;50.994;7.126;2022-09-20T16:53:53;3.07;;;1.60;;
9117;SDS011;4594;50.994;7.126;2022-09-20T16:56:20;1.67;;;1.50;;
9117;SDS011;4594;50.994;7.126;2022-09-20T16:58:51;1.70;;;1.60;;
9117;SDS011;4594;50.994;7.126;2022-09-20T17:01:18;1.60;;;1.50;;
9117;SDS011;4594;50.994;7.126;2022-09-20T17:03:44;4.43;;;1.47;;
9117;SDS011;4594;50.994;7.126;2022-09-20T17:06:11;2.13;;;1.70;;
9117;SDS011;4594;50.994;7.126;2022-09-20T17:08:40;1.70;;;1.60;;
9117;SDS011;4594;50.994;7.126;2022-09-20T17:11:09;1.83;;;1.50;;
9117;SDS011;4594;50.994;7.126;2022-09-20T17:13:46;1.87;;;1.40;;
9117;SDS011;4594;50.994;7.126;2022-09-20T17:16:15;4.30;;;1.60;;
9117;SDS011;4594;50.994;7.126;2022-09-20T17:18:51;1.57;;;1.50;;
9117;SDS011;4594;50.994;7.126;2022-09-20T17:21:31;4.60;;;1.93;;
9117;SDS011;4594;50.994;7.126;2022-09-20T17:23:59;1.90;;;1.60;;
9117;SDS011;4594;50.994;7.126;2022-09-20T17:26:29;1.80;;;1.70;;
9117;SDS011;4594;50.994;7.126;2022-09-20T17:28:57;1.80;;;1.70;;
9117;SDS011;4594;50.994;7.126;2022-09-20T17:31:27;1.30;;;1.30;;
9117;SDS011;4594;50.994;7.126;2022-09-20T17:34:00;1.70;;;1.60;;
9117;SDS011;4594;50.994;7.126;2022-09-20T17:36:28;2.90;;;1.97;;
9117;SDS011;4594;50.994;7.126;2022-09-20T17:38:58;3.03;;;1.60;;
9117;SDS011;4594;50.994;7.126;2022-09-20T17:41:26;2.17;;;1.90;;
9117;SDS011;4594;50.994;7.126;2022-09-20T17:43:54;1.97;;;1.87;;
9117;SDS011;4594;50.994;7.126;2022-09-20T17:46:22;2.43;;;1.87;;
9117;SDS011;4594;50.994;7.126;2022-09-20T17:48:53;2.83;;;2.40;;
9117;SDS011;4594;50.994;7.126;2022-09-20T17:51:21;2.87;;;2.00;;
9117;SDS011;4594;50.994;7.126;2022-09-20T17:53:50;2.27;;;2.07;;
9117;SDS011;4594;50.994;7.126;2022-09-20T17:56:17;1.80;;;1.70;;
9117;SDS011;4594;50.994;7.126;2022-09-20T17:58:47;2.03;;;1.87;;
9117;SDS011;4594;50.994;7.126;2022-09-20T18:01:13;5.50;;;2.40;;
9117;SDS011;4594;50.994;7.126;2022-09-20T18:03:44;3.53;;;2.10;;
9117;SDS011;4594;50.994;7.126;2022-09-20T18:06:34;4.67;;;1.97;;
9117;SDS011;4594;50.994;7.126;2022-09-20T18:09:20;1.83;;;1.73;;
9117;SDS011;4594;50.994;7.126;2022-09-20T18:11:50;8.60;;;2.00;;
9117;SDS011;4594;50.994;7.126;2022-09-20T18:14:18;2.60;;;2.43;;
9117;SDS011;4594;50.994;7.126;2022-09-20T18:16:49;2.87;;;1.90;;
9117;SDS011;4594;50.994;7.126;2022-09-20T18:19:16;2.30;;;2.20;;
9117;SDS011;4594;50.994;7.126;2022-09-20T18:21:42;2.23;;;2.13;;
9117;SDS011;4594;50.994;7.126;2022-09-20T18:24:08;4.73;;;2.17;;
9117;SDS011;4594;50.994;7.126;2022-09-20T18:26:36;5.70;;;2.50;;
9117;SDS011;4594;50.994;7.126;2022-09-20T18:29:06;3.93;;;2.40;;
9117;SDS011;4594;50.994;7.126;2022-09-20T18:31:41;3.53;;;2.40;;
9117;SDS011;4594;50.994;7.126;2022-09-20T18:34:19;2.20;;;2.03;;
9117;SDS011;4594;50.994;7.126;2022-09-20T18:36:51;2.50;;;2.40;;
9117;SDS011;4594;50.994;7.126;2022-09-20T18:39:19;9.57;;;2.93;;
9117;SDS011;4594;50.994;7.126;2022-09-20T18:41:47;2.90;;;2.70;;
9117;SDS011;4594;50.994;7.126;2022-09-20T18:44:14;3.67;;;2.90;;
9117;SDS011;4594;50.994;7.126;2022-09-20T18:46:42;2.90;;;2.70;;
9117;SDS011;4594;50.994;7.126;2022-09-20T18:49:09;6.17;;;2.87;;
9117;SDS011;4594;50.994;7.126;2022-09-20T18:51:40;4.37;;;3.17;;
9117;SDS011;4594;50.994;7.126;2022-09-20T18:54:07;2.87;;;2.60;;
9117;SDS011;4594;50.994;7.126;2022-09-20T18:56:35;3.17;;;2.50;;
9117;SDS011;4594;50.994;7.126;2022-09-20T18:59:12;5.40;;;2.83;;
9117;SDS011;4594;50.994;7.126;2022-09-20T19:10:45;10.17;;;5.17;;
9117;SDS011;4594;50.994;7.126;2022-09-20T19:13:37;13.77;;;5.97;;
9117;SDS011;4594;50.994;7.126;2022-09-20T19:16:18;14.47;;;6.90;;
9117;SDS011;4594;50.994;7.126;2022-09-20T19:22:01;11.17;;;5.57;;
9117;SDS011;4594;50.994;7.126;2022-09-20T19:25:09;8.70;;;5.33;;
9117;SDS011;4594;50.994;7.126;2022-09-20T19:28:01;9.40;;;4.67;;
9117;SDS011;4594;50.994;7.126;2022-09-20T19:30:27;5.87;;;4.27;;
9117;SDS011;4594;50.994;7.126;2022-09-20T19:32:54;6.63;;;4.07;;
9117;SDS011;4594;50.994;7.126;2022-09-20T19:35:24;8.13;;;3.67;;
9117;SDS011;4594;50.994;7.126;2022-09-20T19:38:10;6.70;;;3.63;;
9117;SDS011;4594;50.994;7.126;2022-09-20T19:50:48;4.43;;;3.30;;
9117;SDS011;4594;50.994;7.126;2022-09-20T19:53:10;3.73;;;3.43;;
9117;SDS011;4594;50.994;7.126;2022-09-20T19:55:42;3.80;;;3.47;;
9117;SDS011;4594;50.994;7.126;2022-09-20T19:58:14;3.43;;;3.10;;
9117;SDS011;4594;50.994;7.126;2022-09-20T20:00:43;6.50;;;3.20;;
9117;SDS011;4594;50.994;7.126;2022-09-20T20:03:11;4.57;;;3.27;;
9117;SDS011;4594;50.994;7.126;2022-09-20T20:05:40;4.87;;;3.73;;
9117;SDS011;4594;50.994;7.126;2022-09-20T20:08:16;3.57;;;3.37;;
9117;SDS011;4594;50.994;7.126;2022-09-20T20:26:04;3.10;;;2.90;;
9117;SDS011;4594;50.994;7.126;2022-09-20T20:28:50;2.70;;;2.50;;
9117;SDS011;4594;50.994;7.126;2022-09-20T20:31:17;3.93;;;3.13;;
9117;SDS011;4594;50.994;7.126;2022-09-20T20:33:44;3.37;;;3.10;;
9117;SDS011;4594;50.994;7.126;2022-09-20T20:36:10;3.37;;;2.90;;
9117;SDS011;4594;50.994;7.126;2022-09-20T20:38:37;5.27;;;3.47;;
9117;SDS011;4594;50.994;7.126;2022-09-20T20:41:09;3.20;;;3.00;;
9117;SDS011;4594;50.994;7.126;2022-09-20T20:43:39;3.30;;;3.00;;
9117;SDS011;4594;50.994;7.126;2022-09-20T20:46:08;4.23;;;3.43;;
9117;SDS011;4594;50.994;7.126;2022-09-20T20:48:38;3.40;;;3.10;;
9117;SDS011;4594;50.994;7.126;2022-09-20T20:51:05;3.90;;;3.27;;
9117;SDS011;4594;50.994;7.126;2022-09-20T20:53:37;11.70;;;2.90;;
9117;SDS011;4594;50.994;7.126;2022-09-20T20:56:07;4.87;;;2.90;;
9117;SDS011;4594;50.994;7.126;2022-09-20T20:58:36;4.30;;;3.10;;
9117;SDS011;4594;50.994;7.126;2022-09-20T21:03:46;6.50;;;2.87;;
9117;SDS011;4594;50.994;7.126;2022-09-20T21:06:17;3.23;;;2.93;;
9117;SDS011;4594;50.994;7.126;2022-09-20T21:08:45;4.17;;;3.70;;
9117;SDS011;4594;50.994;7.126;2022-09-20T21:11:13;4.27;;;3.13;;
9117;SDS011;4594;50.994;7.126;2022-09-20T21:13:40;3.07;;;2.87;;
9117;SDS011;4594;50.994;7.126;2022-09-20T21:16:11;3.23;;;2.90;;
9117;SDS011;4594;50.994;7.126;2022-09-20T21:18:40;4.13;;;3.50;;
9117;SDS011;4594;50.994;7.126;2022-09-20T21:21:12;3.37;;;3.07;;
9117;SDS011;4594;50.994;7.126;2022-09-20T21:23:46;2.63;;;2.50;;
9117;SDS011;4594;50.994;7.126;2022-09-20T21:26:15;2.57;;;2.30;;
9117;SDS011;4594;50.994;7.126;2022-09-20T21:28:44;5.40;;;2.70;;
9117;SDS011;4594;50.994;7.126;2022-09-20T21:31:16;4.87;;;3.13;;
9117;SDS011;4594;50.994;7.126;2022-09-20T21:33:43;2.70;;;2.50;;
9117;SDS011;4594;50.994;7.126;2022-09-20T21:36:10;2.63;;;2.50;;
9117;SDS011;4594;50.994;7.126;2022-09-20T21:38:39;2.67;;;2.47;;
9117;SDS011;4594;50.994;7.126;2022-09-20T21:41:16;2.70;;;2.60;;
9117;SDS011;4594;50.994;7.126;2022-09-20T21:43:44;2.60;;;2.40;;
9117;SDS011;4594;50.994;7.126;2022-09-20T21:46:16;2.30;;;2.20;;